Time;durP1;ratioP1;P1;durP2;ratioP2;P2;SDS_P1;SDS_P2;PMS_P1;PMS_P2;Temp;Humidity;BMP_temperature;BMP_pressure;BME280_temperature;BME280_humidity;BME280_pressure;Samples;Min_cycle;Max_cycle;Signal;HPM_P1;HPM_P2
2021/08/19 00:00:12;;;;;;;1.40;1.10;;;17.40;98.00;;;;;;5092894;28;20509;-75
2021/08/19 00:02:39;;;;;;;1.20;1.00;;;17.40;98.00;;;;;;5093613;28;20515;-76
2021/08/19 00:05:07;;;;;;;1.50;1.17;;;17.50;98.00;;;;;;5093778;28;20800;-77
2021/08/19 00:07:34;;;;;;;1.30;1.20;;;17.50;98.00;;;;;;5093715;28;20505;-75
2021/08/19 00:10:03;;;;;;;1.90;1.30;;;17.50;98.00;;;;;;5092720;28;20455;-75
2021/08/19 00:12:30;;;;;;;1.20;1.03;;;17.50;98.00;;;;;;5093588;28;20545;-77
2021/08/19 00:14:57;;;;;;;2.40;1.20;;;17.50;98.00;;;;;;5093627;28;20517;-76
2021/08/19 00:17:24;;;;;;;1.50;1.20;;;17.40;98.00;;;;;;5075699;28;20480;-75
2021/08/19 00:19:51;;;;;;;1.20;1.00;;;17.50;98.00;;;;;;5093260;28;20539;-76
2021/08/19 00:22:18;;;;;;;1.40;1.30;;;17.60;98.00;;;;;;5093573;28;20463;-76
2021/08/19 00:24:48;;;;;;;1.20;1.20;;;17.70;98.00;;;;;;5093322;28;20495;-76
2021/08/19 00:27:17;;;;;;;1.40;1.30;;;17.60;98.00;;;;;;5076043;28;20464;-76
2021/08/19 00:29:44;;;;;;;1.20;1.13;;;17.50;98.00;;;;;;5093407;28;20480;-78
2021/08/19 00:32:11;;;;;;;1.37;1.17;;;17.30;98.00;;;;;;5093309;28;20513;-76
2021/08/19 00:34:38;;;;;;;1.20;1.10;;;17.30;98.00;;;;;;5093177;28;20452;-76
2021/08/19 00:37:05;;;;;;;1.20;1.10;;;17.30;98.00;;;;;;5092893;28;20534;-76
2021/08/19 00:39:32;;;;;;;1.30;1.20;;;17.30;98.00;;;;;;5092931;28;20455;-77
2021/08/19 00:42:00;;;;;;;1.20;1.00;;;17.30;98.00;;;;;;5092962;28;20492;-77
2021/08/19 00:44:28;;;;;;;1.50;1.17;;;17.30;98.00;;;;;;5092667;28;20529;-76
2021/08/19 00:46:55;;;;;;;1.67;1.30;;;17.10;98.00;;;;;;5092768;28;20494;-77
2021/08/19 00:49:22;;;;;;;2.67;1.30;;;17.10;98.00;;;;;;5092750;28;20487;-76
2021/08/19 00:51:52;;;;;;;1.20;1.10;;;17.00;98.00;;;;;;5092144;28;20509;-76
2021/08/19 00:54:22;;;;;;;1.93;1.20;;;17.00;98.00;;;;;;5092519;28;20476;-76
2021/08/19 00:56:54;;;;;;;1.37;1.20;;;17.00;98.00;;;;;;5092528;28;20495;-75
2021/08/19 00:59:23;;;;;;;1.30;1.17;;;17.00;98.00;;;;;;5092631;28;20546;-76
2021/08/19 01:01:52;;;;;;;1.30;1.20;;;17.10;98.00;;;;;;5092528;28;20452;-76
2021/08/19 01:04:19;;;;;;;1.20;1.10;;;17.10;98.00;;;;;;5092588;28;20562;-76
2021/08/19 01:06:46;;;;;;;1.20;1.20;;;17.10;98.00;;;;;;5092326;28;20542;-76
2021/08/19 01:09:13;;;;;;;1.20;1.13;;;17.10;98.00;;;;;;5074437;28;20512;-75
2021/08/19 01:11:49;;;;;;;1.30;1.20;;;17.00;98.00;;;;;;5092423;28;20529;-76
2021/08/19 01:14:17;;;;;;;1.27;1.27;;;17.00;98.00;;;;;;5092514;28;20448;-76
2021/08/19 01:16:45;;;;;;;1.20;1.00;;;17.00;98.00;;;;;;5092178;28;20500;-76
2021/08/19 01:19:15;;;;;;;1.30;1.10;;;17.00;98.00;;;;;;5092833;28;20882;-76
2021/08/19 01:21:42;;;;;;;1.20;1.10;;;17.00;98.00;;;;;;5092020;28;20942;-76
2021/08/19 01:24:09;;;;;;;1.20;1.10;;;17.00;98.00;;;;;;5092209;28;20561;-76
2021/08/19 01:26:37;;;;;;;1.20;1.07;;;17.00;98.00;;;;;;5092285;28;20482;-76
2021/08/19 01:29:05;;;;;;;1.20;1.07;;;17.00;98.00;;;;;;5092545;28;20460;-75
2021/08/19 01:31:34;;;;;;;1.20;1.00;;;17.00;98.00;;;;;;5092212;28;20870;-77
2021/08/19 01:34:01;;;;;;;1.70;1.60;;;17.00;98.00;;;;;;5074721;28;20865;-77
2021/08/19 01:36:28;;;;;;;1.20;1.00;;;17.10;98.00;;;;;;5092127;28;20475;-78
2021/08/19 01:38:57;;;;;;;1.30;1.10;;;17.00;98.00;;;;;;5092213;28;20484;-76
2021/08/19 01:41:24;;;;;;;1.40;1.10;;;17.00;98.00;;;;;;5073615;28;20501;-75
2021/08/19 01:43:53;;;;;;;1.20;1.10;;;16.90;98.00;;;;;;5092013;28;20515;-77
2021/08/19 01:46:22;;;;;;;1.20;1.20;;;16.90;98.00;;;;;;5092121;28;20448;-76
2021/08/19 01:48:50;;;;;;;1.30;1.20;;;16.90;98.00;;;;;;5091940;28;20961;-76
2021/08/19 01:51:18;;;;;;;1.20;1.10;;;17.00;98.00;;;;;;5092026;28;20513;-75
2021/08/19 01:53:47;;;;;;;1.20;1.13;;;17.00;98.00;;;;;;5092135;28;21083;-77
2021/08/19 01:56:14;;;;;;;1.30;1.10;;;17.10;98.00;;;;;;5091714;28;20494;-75
2021/08/19 01:58:42;;;;;;;1.20;1.10;;;17.20;98.00;;;;;;5091827;28;20452;-76
2021/08/19 02:01:09;;;;;;;1.20;1.20;;;17.10;98.00;;;;;;5091768;28;20464;-75
2021/08/19 02:03:37;;;;;;;1.90;1.20;;;17.20;98.00;;;;;;5091630;28;20480;-77
2021/08/19 02:06:04;;;;;;;1.20;1.00;;;17.30;98.00;;;;;;5091862;28;20502;-77
2021/08/19 02:08:31;;;;;;;1.20;1.10;;;17.30;98.00;;;;;;5091700;28;20487;-76
2021/08/19 02:11:01;;;;;;;1.20;1.00;;;17.40;98.00;;;;;;5073709;28;20460;-76
2021/08/19 02:13:28;;;;;;;1.20;1.10;;;17.40;98.00;;;;;;5091990;28;20486;-76
2021/08/19 02:15:57;;;;;;;1.20;1.00;;;17.40;98.00;;;;;;5091863;28;20460;-77
2021/08/19 02:18:24;;;;;;;1.20;1.10;;;17.30;98.00;;;;;;5091738;28;20626;-76
2021/08/19 02:20:53;;;;;;;1.60;1.30;;;17.20;98.00;;;;;;5091568;28;20852;-76
2021/08/19 02:23:20;;;;;;;1.20;1.10;;;17.20;98.00;;;;;;5091758;28;20476;-75
2021/08/19 02:25:47;;;;;;;1.67;1.40;;;17.20;98.00;;;;;;5091289;28;20509;-76
2021/08/19 02:28:14;;;;;;;1.20;1.10;;;17.10;98.00;;;;;;5091558;28;20452;-76
2021/08/19 02:30:41;;;;;;;1.40;1.20;;;17.10;98.00;;;;;;5091727;28;20545;-76
2021/08/19 02:33:09;;;;;;;1.30;1.20;;;17.00;98.00;;;;;;5091722;28;20576;-76
2021/08/19 02:35:36;;;;;;;1.20;1.10;;;17.00;98.00;;;;;;5091172;28;20495;-76
2021/08/19 02:38:07;;;;;;;1.20;1.10;;;16.90;98.00;;;;;;5091571;28;20456;-76
2021/08/19 02:40:36;;;;;;;3.00;1.37;;;17.00;98.00;;;;;;5091353;28;20509;-76
2021/08/19 02:43:03;;;;;;;1.20;1.10;;;17.00;98.00;;;;;;5091425;28;20577;-76
2021/08/19 02:45:30;;;;;;;1.63;1.23;;;17.10;98.00;;;;;;5091357;28;20849;-76
2021/08/19 02:47:57;;;;;;;1.20;1.00;;;17.10;98.00;;;;;;5091642;28;20452;-77
2021/08/19 02:50:24;;;;;;;2.17;1.27;;;17.30;98.00;;;;;;5091271;28;20456;-76
2021/08/19 02:52:52;;;;;;;1.20;1.10;;;17.20;98.00;;;;;;5091272;28;20490;-76
2021/08/19 02:55:20;;;;;;;1.20;1.00;;;17.10;98.00;;;;;;5091709;28;20456;-76
2021/08/19 02:57:47;;;;;;;1.70;1.30;;;17.20;98.00;;;;;;5091472;28;20486;-76
2021/08/19 03:00:15;;;;;;;2.70;1.30;;;17.20;98.00;;;;;;5091350;28;20488;-75
2021/08/19 03:02:42;;;;;;;1.83;1.20;;;17.20;98.00;;;;;;5091412;28;20456;-76
2021/08/19 03:05:10;;;;;;;1.20;1.10;;;17.30;98.00;;;;;;5091344;28;20936;-76
2021/08/19 03:07:37;;;;;;;1.73;1.20;;;17.30;98.00;;;;;;5091439;28;20486;-75
2021/08/19 03:10:05;;;;;;;1.20;1.07;;;17.40;98.00;;;;;;5093924;28;20492;-78
2021/08/19 03:12:34;;;;;;;1.20;1.00;;;17.40;98.00;;;;;;5095165;28;20460;-76
2021/08/19 03:15:02;;;;;;;1.20;1.17;;;17.40;98.00;;;;;;5094886;28;20455;-76
2021/08/19 03:17:29;;;;;;;1.30;1.10;;;17.40;98.00;;;;;;5076857;28;20464;-76
2021/08/19 03:19:56;;;;;;;1.27;1.20;;;17.40;98.00;;;;;;5094957;28;20484;-76
2021/08/19 03:22:23;;;;;;;1.40;1.27;;;17.50;98.00;;;;;;5094629;28;20456;-76
2021/08/19 03:24:50;;;;;;;1.20;1.10;;;17.50;98.00;;;;;;5094572;28;20556;-77
2021/08/19 03:27:18;;;;;;;1.20;1.17;;;17.60;98.00;;;;;;5094636;28;20893;-76
2021/08/19 03:29:48;;;;;;;1.40;1.20;;;17.60;98.00;;;;;;5094729;28;21007;-76
2021/08/19 03:32:15;;;;;;;1.20;1.10;;;17.70;98.00;;;;;;5094417;28;20517;-76
2021/08/19 03:34:42;;;;;;;1.67;1.10;;;17.50;98.00;;;;;;5094487;28;20877;-76
2021/08/19 03:37:11;;;;;;;1.67;1.20;;;17.60;98.00;;;;;;5094466;28;20463;-76
2021/08/19 03:39:38;;;;;;;1.20;1.13;;;17.60;98.00;;;;;;5094205;28;20505;-76
2021/08/19 03:42:08;;;;;;;1.20;1.00;;;17.60;98.00;;;;;;5094381;28;20448;-76
2021/08/19 03:44:35;;;;;;;1.30;1.20;;;17.50;98.00;;;;;;5094383;28;20483;-76
2021/08/19 03:47:05;;;;;;;1.40;1.20;;;17.60;98.00;;;;;;5094244;28;20460;-76
2021/08/19 03:49:32;;;;;;;1.23;1.13;;;17.50;98.00;;;;;;5094198;28;20456;-76
2021/08/19 03:51:59;;;;;;;1.20;1.10;;;17.50;98.00;;;;;;5094207;28;20451;-76
2021/08/19 03:54:26;;;;;;;1.20;1.17;;;17.30;98.00;;;;;;5093958;28;20957;-77
2021/08/19 03:56:53;;;;;;;1.20;1.10;;;17.30;98.00;;;;;;5093738;28;20479;-76
2021/08/19 03:59:22;;;;;;;1.30;1.03;;;17.40;98.00;;;;;;5094089;28;20477;-75
2021/08/19 04:01:49;;;;;;;1.20;1.10;;;17.30;98.00;;;;;;5093750;28;20460;-77
2021/08/19 04:04:17;;;;;;;1.23;1.17;;;17.40;98.00;;;;;;5093643;28;20561;-76
2021/08/19 04:06:45;;;;;;;1.50;1.30;;;17.40;98.00;;;;;;5093395;28;20495;-77
2021/08/19 04:09:12;;;;;;;1.23;1.13;;;17.50;98.00;;;;;;5093723;28;20521;-76
2021/08/19 04:11:39;;;;;;;1.20;1.10;;;17.40;98.00;;;;;;5093851;28;20463;-76
2021/08/19 04:14:11;;;;;;;1.37;1.17;;;17.50;98.00;;;;;;5093827;28;20847;-77
2021/08/19 04:16:38;;;;;;;1.30;1.10;;;17.40;98.00;;;;;;5093576;28;20499;-76
2021/08/19 04:19:05;;;;;;;1.53;1.30;;;17.40;98.00;;;;;;5093664;28;20497;-76
2021/08/19 04:21:33;;;;;;;1.20;1.07;;;17.30;98.00;;;;;;5093322;28;20488;-77
2021/08/19 04:24:01;;;;;;;1.30;1.10;;;17.30;98.00;;;;;;5093499;28;20962;-76
2021/08/19 04:26:28;;;;;;;1.20;1.07;;;17.20;98.00;;;;;;5093492;28;20518;-78
2021/08/19 04:28:55;;;;;;;1.20;1.03;;;17.30;98.00;;;;;;5075690;28;20987;-76
2021/08/19 04:31:23;;;;;;;1.20;1.10;;;17.30;98.00;;;;;;5093478;28;20458;-76
2021/08/19 04:33:49;;;;;;;1.20;1.10;;;17.30;98.00;;;;;;5093369;28;21023;-77
2021/08/19 04:36:16;;;;;;;1.20;1.10;;;17.30;98.00;;;;;;5093195;28;20456;-76
2021/08/19 04:38:45;;;;;;;1.20;1.10;;;17.30;98.00;;;;;;5093108;28;20456;-76
2021/08/19 04:41:13;;;;;;;1.23;1.10;;;17.20;98.00;;;;;;5092821;28;20475;-78
2021/08/19 04:43:40;;;;;;;1.20;1.10;;;17.30;98.00;;;;;;5092443;28;20507;-77
2021/08/19 04:46:07;;;;;;;1.30;1.10;;;17.30;98.00;;;;;;5092435;28;21086;-76
2021/08/19 04:48:34;;;;;;;1.80;1.10;;;17.30;98.00;;;;;;5092948;28;20958;-77
2021/08/19 04:51:01;;;;;;;1.43;1.20;;;17.40;98.00;;;;;;5092748;28;20973;-76
2021/08/19 04:53:28;;;;;;;1.60;1.33;;;17.50;98.00;;;;;;5093008;28;20492;-77
2021/08/19 04:55:57;;;;;;;1.23;1.13;;;17.50;98.00;;;;;;5093026;28;20482;-76
2021/08/19 04:58:28;;;;;;;1.20;1.07;;;17.50;98.00;;;;;;5092766;28;20451;-75
2021/08/19 05:00:55;;;;;;;1.20;1.10;;;17.60;98.00;;;;;;5092662;28;20459;-77
2021/08/19 05:03:22;;;;;;;1.20;1.07;;;17.70;98.00;;;;;;5093097;28;20501;-76
2021/08/19 05:05:53;;;;;;;1.20;1.10;;;17.70;98.00;;;;;;5093095;28;20483;-76
2021/08/19 05:08:28;;;;;;;1.20;1.00;;;17.80;98.00;;;;;;5093094;28;20570;-77
2021/08/19 05:10:57;;;;;;;1.20;1.00;;;17.80;98.00;;;;;;5092984;28;20504;-76
2021/08/19 05:13:24;;;;;;;3.10;1.40;;;17.70;98.00;;;;;;5092665;28;20518;-76
2021/08/19 05:15:51;;;;;;;1.67;1.10;;;17.70;98.00;;;;;;5092467;28;20543;-76
2021/08/19 05:18:19;;;;;;;1.30;1.10;;;17.60;98.00;;;;;;5092627;28;20497;-76
2021/08/19 05:20:46;;;;;;;1.20;1.00;;;17.60;98.00;;;;;;5092383;28;20480;-76
2021/08/19 05:23:13;;;;;;;1.20;1.20;;;17.70;98.00;;;;;;5092489;28;20484;-76
2021/08/19 05:25:40;;;;;;;1.20;1.00;;;17.80;98.00;;;;;;5092395;28;20901;-78
2021/08/19 05:28:08;;;;;;;2.20;1.37;;;17.70;98.00;;;;;;5092498;28;20541;-77
2021/08/19 05:30:35;;;;;;;1.73;1.30;;;17.70;98.00;;;;;;5092281;28;20460;-78
2021/08/19 05:33:02;;;;;;;1.93;1.60;;;17.80;98.00;;;;;;5091684;28;20517;-77
2021/08/19 05:35:30;;;;;;;1.20;1.17;;;17.80;98.00;;;;;;5092278;28;20456;-77
2021/08/19 05:37:57;;;;;;;1.20;1.10;;;17.90;98.00;;;;;;5092431;28;20503;-79
2021/08/19 05:40:24;;;;;;;1.40;1.20;;;18.00;98.00;;;;;;5074573;28;20456;-77
2021/08/19 05:42:51;;;;;;;1.50;1.50;;;18.00;98.00;;;;;;5092129;28;20459;-76
2021/08/19 05:45:20;;;;;;;1.20;1.07;;;18.10;98.00;;;;;;5092472;28;20892;-77
2021/08/19 05:47:47;;;;;;;1.20;1.00;;;18.10;98.00;;;;;;5092397;28;20492;-78
2021/08/19 05:50:14;;;;;;;1.30;1.30;;;18.10;98.00;;;;;;5092212;28;20774;-77
2021/08/19 05:52:42;;;;;;;1.20;1.10;;;18.00;98.00;;;;;;5092461;28;20456;-78
2021/08/19 05:55:10;;;;;;;1.20;1.10;;;18.00;98.00;;;;;;5074307;28;20506;-77
2021/08/19 05:57:37;;;;;;;1.20;1.00;;;17.90;98.00;;;;;;5091894;28;20522;-78
2021/08/19 06:00:04;;;;;;;1.20;1.10;;;17.80;98.00;;;;;;5091742;28;20451;-78
2021/08/19 06:02:33;;;;;;;1.20;1.10;;;17.70;98.00;;;;;;5091638;28;20455;-78
2021/08/19 06:05:00;;;;;;;1.40;1.20;;;17.60;98.00;;;;;;5073468;28;20947;-78
2021/08/19 06:07:27;;;;;;;1.27;1.03;;;17.60;98.00;;;;;;5092021;28;20460;-72
2021/08/19 06:09:55;;;;;;;1.20;1.10;;;17.60;98.00;;;;;;5074109;28;20503;-77
2021/08/19 06:12:22;;;;;;;1.30;1.30;;;17.70;98.00;;;;;;5091797;28;20509;-77
2021/08/19 06:14:51;;;;;;;1.30;1.30;;;17.70;98.00;;;;;;5073761;28;20549;-78
2021/08/19 06:17:18;;;;;;;1.20;1.10;;;17.80;98.00;;;;;;5091750;28;20528;-76
2021/08/19 06:19:46;;;;;;;1.40;1.23;;;17.80;98.00;;;;;;5091769;28;20456;-78
2021/08/19 06:22:14;;;;;;;1.30;1.27;;;17.80;98.00;;;;;;5091761;28;20479;-77
2021/08/19 06:24:41;;;;;;;1.60;1.40;;;17.90;98.00;;;;;;5091683;28;20480;-77
2021/08/19 06:27:09;;;;;;;1.20;1.10;;;17.90;98.00;;;;;;5091550;28;20451;-77
2021/08/19 06:29:36;;;;;;;1.20;1.00;;;17.90;98.00;;;;;;5091772;28;20468;-77
2021/08/19 06:32:03;;;;;;;1.50;1.30;;;17.90;98.00;;;;;;5091616;28;20451;-79
2021/08/19 06:34:30;;;;;;;1.20;1.00;;;17.90;98.00;;;;;;5074076;28;20483;-79
2021/08/19 06:36:59;;;;;;;1.30;1.20;;;17.90;98.00;;;;;;5091927;28;20533;-79
2021/08/19 06:39:26;;;;;;;1.63;1.23;;;17.90;98.00;;;;;;5091903;28;20537;-77
2021/08/19 06:41:53;;;;;;;1.20;1.00;;;18.10;98.00;;;;;;5091357;28;20495;-76
2021/08/19 06:44:20;;;;;;;1.20;1.20;;;18.50;98.00;;;;;;5076583;28;20463;-76
2021/08/19 06:46:47;;;;;;;1.20;1.10;;;18.90;98.00;;;;;;5095092;28;20491;-76
2021/08/19 06:49:14;;;;;;;1.30;1.30;;;19.30;98.00;;;;;;5095446;28;20488;-77
2021/08/19 06:51:41;;;;;;;1.83;1.23;;;19.60;98.00;;;;;;5094845;28;20452;-76
2021/08/19 06:54:10;;;;;;;3.73;1.27;;;19.90;98.00;;;;;;5094650;28;20455;-76
2021/08/19 06:56:37;;;;;;;1.20;1.10;;;20.10;98.00;;;;;;5094714;28;20497;-76
2021/08/19 06:59:04;;;;;;;1.20;1.10;;;20.20;98.00;;;;;;5094584;28;20462;-78
2021/08/19 07:01:31;;;;;;;1.20;1.20;;;20.40;98.00;;;;;;5094516;28;20452;-74
2021/08/19 07:03:58;;;;;;;1.20;1.10;;;20.50;98.00;;;;;;5094799;28;20463;-73
2021/08/19 07:06:25;;;;;;;1.20;1.20;;;20.60;98.00;;;;;;5095170;28;20887;-76
2021/08/19 07:08:52;;;;;;;1.73;1.30;;;20.70;98.00;;;;;;5094926;28;20826;-76
2021/08/19 07:11:21;;;;;;;1.20;1.00;;;20.80;98.00;;;;;;5094854;28;20451;-75
2021/08/19 07:13:52;;;;;;;1.70;1.23;;;20.80;98.00;;;;;;5078136;28;20491;-74
2021/08/19 07:16:20;;;;;;;1.30;1.20;;;20.90;98.00;;;;;;5080968;28;20459;-71
2021/08/19 07:18:49;;;;;;;1.20;1.20;;;20.90;98.00;;;;;;5073338;28;20491;-71
2021/08/19 07:21:16;;;;;;;1.90;1.57;;;21.10;98.00;;;;;;5082271;28;20444;-72
2021/08/19 07:23:43;;;;;;;1.20;1.20;;;20.90;98.00;;;;;;5080183;28;20493;-72
2021/08/19 07:26:10;;;;;;;1.20;1.17;;;20.80;98.00;;;;;;5073815;28;21067;-72
2021/08/19 07:28:39;;;;;;;1.30;1.20;;;20.80;98.00;;;;;;5070145;28;20455;-72
2021/08/19 07:31:07;;;;;;;1.20;1.10;;;20.70;98.00;;;;;;5073647;28;20472;-72
2021/08/19 07:33:37;;;;;;;1.30;1.20;;;20.90;98.00;;;;;;5080519;28;20499;-74
2021/08/19 07:36:04;;;;;;;1.20;1.10;;;20.90;98.00;;;;;;5088987;28;20456;-74
2021/08/19 07:38:31;;;;;;;1.30;1.30;;;21.10;98.00;;;;;;5089433;28;20520;-74
2021/08/19 07:40:58;;;;;;;1.30;1.30;;;21.30;98.00;;;;;;5073147;28;20484;-72
2021/08/19 07:43:25;;;;;;;1.40;1.20;;;21.20;98.00;;;;;;5081254;28;20914;-72
2021/08/19 07:45:53;;;;;;;1.20;1.20;;;21.00;98.00;;;;;;5053464;28;20528;-72
2021/08/19 07:48:20;;;;;;;1.40;1.40;;;21.10;98.00;;;;;;5080446;28;20499;-74
2021/08/19 07:50:47;;;;;;;1.30;1.30;;;20.80;98.00;;;;;;5078522;28;20480;-73
2021/08/19 07:53:14;;;;;;;1.40;1.20;;;20.70;98.00;;;;;;5055224;28;20485;-73
2021/08/19 07:55:41;;;;;;;1.20;1.00;;;20.50;98.00;;;;;;5077087;28;20487;-73
2021/08/19 07:58:08;;;;;;;1.30;1.20;;;20.50;98.00;;;;;;5088743;28;20808;-74
2021/08/19 08:00:37;;;;;;;1.40;1.17;;;20.60;98.00;;;;;;5073705;28;20488;-74
2021/08/19 08:03:05;;;;;;;1.30;1.23;;;20.60;98.00;;;;;;5068851;28;20943;-76
2021/08/19 08:05:34;;;;;;;1.30;1.20;;;20.60;98.00;;;;;;5072420;28;20523;-75
2021/08/19 08:08:04;;;;;;;1.20;1.17;;;20.50;98.00;;;;;;5087748;28;20539;-75
2021/08/19 08:10:32;;;;;;;1.20;1.10;;;20.60;98.00;;;;;;5056087;28;20793;-77
2021/08/19 08:12:59;;;;;;;1.50;1.30;;;20.60;98.00;;;;;;5077475;28;20965;-77
2021/08/19 08:15:26;;;;;;;1.67;1.30;;;20.60;98.00;;;;;;5086804;28;20469;-78
2021/08/19 08:17:54;;;;;;;1.20;1.20;;;20.60;98.00;;;;;;5088431;28;20484;-77
2021/08/19 08:20:22;;;;;;;1.40;1.27;;;20.70;98.00;;;;;;5086808;28;21095;-76
2021/08/19 08:22:51;;;;;;;1.30;1.20;;;20.80;98.00;;;;;;5081764;28;21207;-77
2021/08/19 08:25:19;;;;;;;1.20;1.10;;;20.50;98.00;;;;;;5080154;28;20476;-76
2021/08/19 08:27:59;;;;;;;1.40;1.20;;;20.30;98.00;;;;;;5058951;28;20452;-76
2021/08/19 08:30:27;;;;;;;1.53;1.20;;;20.20;98.00;;;;;;5078258;28;20452;-79
2021/08/19 08:32:54;;;;;;;1.20;1.20;;;20.40;98.00;;;;;;5080304;28;20530;-76
2021/08/19 08:35:23;;;;;;;1.30;1.30;;;20.50;98.00;;;;;;5061297;28;20475;-77
2021/08/19 08:37:50;;;;;;;1.40;1.23;;;20.50;98.00;;;;;;5080515;28;20986;-78
2021/08/19 08:40:18;;;;;;;2.03;1.27;;;20.30;98.00;;;;;;5079997;28;20497;-77
2021/08/19 08:42:46;;;;;;;1.30;1.30;;;20.20;98.00;;;;;;5086270;28;20452;-77
2021/08/19 08:45:14;;;;;;;1.50;1.10;;;20.10;98.00;;;;;;5060561;28;20454;-76
2021/08/19 08:47:41;;;;;;;1.30;1.10;;;20.40;98.00;;;;;;5072134;28;20485;-77
2021/08/19 08:50:10;;;;;;;1.20;1.10;;;20.50;98.00;;;;;;5069172;28;20897;-78
2021/08/19 08:52:40;;;;;;;1.40;1.23;;;20.70;98.00;;;;;;5079488;28;20449;-77
2021/08/19 08:55:09;;;;;;;1.27;1.10;;;20.80;98.00;;;;;;5078852;28;20453;-76
2021/08/19 08:57:36;;;;;;;1.60;1.30;;;20.70;98.00;;;;;;5085811;28;20458;-77
2021/08/19 09:00:11;;;;;;;1.50;1.20;;;20.50;98.00;;;;;;5087695;28;20486;-77
2021/08/19 09:02:38;;;;;;;1.70;1.20;;;20.40;98.00;;;;;;5073357;28;20512;-76
2021/08/19 09:05:16;;;;;;;1.57;1.30;;;20.30;98.00;;;;;;5070377;28;20531;-78
2021/08/19 09:07:45;;;;;;;1.20;1.10;;;20.30;98.00;;;;;;5078571;28;20485;-77
2021/08/19 09:10:13;;;;;;;1.60;1.27;;;20.20;98.00;;;;;;5086871;28;20488;-78
2021/08/19 09:12:41;;;;;;;1.30;1.27;;;20.10;98.00;;;;;;5078165;28;21018;-77
2021/08/19 09:15:11;;;;;;;1.27;1.23;;;20.10;98.00;;;;;;5069424;28;20509;-81
2021/08/19 09:17:43;;;;;;;1.80;1.50;;;20.20;98.00;;;;;;5086754;28;20499;-79
2021/08/19 09:20:12;;;;;;;1.30;1.20;;;20.20;98.00;;;;;;5078716;28;20492;-78
2021/08/19 09:23:02;;;;;;;1.20;1.17;;;20.30;98.00;;;;;;5078448;28;20541;-78
2021/08/19 09:25:32;;;;;;;1.20;1.00;;;20.40;98.00;;;;;;5074928;28;20958;-77
2021/08/19 09:28:20;;;;;;;1.20;1.20;;;20.40;98.00;;;;;;5078437;28;20517;-77
2021/08/19 09:30:50;;;;;;;1.20;1.10;;;20.50;98.00;;;;;;5080800;28;20469;-78
2021/08/19 09:33:20;;;;;;;1.20;1.10;;;20.70;98.00;;;;;;5075941;28;20553;-78
2021/08/19 09:35:48;;;;;;;1.30;1.30;;;20.80;98.00;;;;;;5081116;28;20464;-78
2021/08/19 09:38:18;;;;;;;2.37;1.40;;;20.90;98.00;;;;;;5078451;28;20623;-75
2021/08/19 09:41:05;;;;;;;2.30;1.47;;;20.90;98.00;;;;;;5077922;28;20491;-76
2021/08/19 09:43:41;;;;;;;1.20;1.00;;;20.70;98.00;;;;;;5078593;28;20493;-78
2021/08/19 09:46:08;;;;;;;1.20;1.10;;;20.70;98.00;;;;;;5070029;28;20528;-75
2021/08/19 09:48:35;;;;;;;1.57;1.23;;;21.10;98.00;;;;;;5087332;28;20491;-78
2021/08/19 09:51:17;;;;;;;1.40;1.20;;;21.50;98.00;;;;;;5067658;28;20535;-77
2021/08/19 09:53:47;;;;;;;1.20;1.20;;;21.90;98.00;;;;;;5079558;28;20467;-79
2021/08/19 09:56:25;;;;;;;1.33;1.10;;;22.10;98.00;;;;;;5086083;28;20472;-77
2021/08/19 09:58:53;;;;;;;1.20;1.20;;;21.90;98.00;;;;;;5086635;28;20563;-75
2021/08/19 10:01:20;;;;;;;2.80;1.50;;;21.70;98.00;;;;;;5075244;28;20460;-76
2021/08/19 10:03:51;;;;;;;1.20;1.20;;;21.60;98.00;;;;;;5069710;28;20465;-76
2021/08/19 10:06:18;;;;;;;1.30;1.10;;;21.50;98.00;;;;;;5078269;28;20493;-78
2021/08/19 10:08:46;;;;;;;1.30;1.10;;;21.50;98.00;;;;;;5072987;28;20480;-75
2021/08/19 10:11:15;;;;;;;1.50;1.20;;;21.50;98.00;;;;;;5060033;28;20491;-75
2021/08/19 10:13:43;;;;;;;1.40;1.23;;;21.60;98.00;;;;;;5082181;28;20452;-75
2021/08/19 10:16:11;;;;;;;1.37;1.27;;;21.80;98.00;;;;;;5081787;28;20885;-74
2021/08/19 10:18:42;;;;;;;1.37;1.20;;;21.90;98.00;;;;;;5088386;28;20487;-77
2021/08/19 10:21:13;;;;;;;1.30;1.10;;;21.80;98.00;;;;;;5086459;28;20497;-75
2021/08/19 10:23:42;;;;;;;1.40;1.30;;;21.60;98.00;;;;;;5073061;28;20916;-75
2021/08/19 10:26:12;;;;;;;1.53;1.20;;;21.50;98.00;;;;;;5074015;28;20747;-74
2021/08/19 10:28:52;;;;;;;1.30;1.20;;;21.50;98.00;;;;;;5077459;28;20460;-74
2021/08/19 10:31:45;;;;;;;1.20;1.17;;;21.40;98.00;;;;;;5090613;28;20495;-75
2021/08/19 10:34:14;;;;;;;1.20;1.20;;;21.50;98.00;;;;;;5072490;28;20465;-74
2021/08/19 10:36:52;;;;;;;1.60;1.30;;;21.60;98.00;;;;;;5091115;28;20491;-75
2021/08/19 10:39:40;;;;;;;1.20;1.20;;;21.90;98.00;;;;;;5076116;28;20452;-75
2021/08/19 10:42:29;;;;;;;1.40;1.20;;;22.10;98.00;;;;;;5078205;28;20915;-74
2021/08/19 10:44:56;;;;;;;1.23;1.10;;;22.00;98.00;;;;;;5088453;28;20454;-75
2021/08/19 10:47:38;;;;;;;1.50;1.40;;;22.10;98.00;;;;;;5090954;28;20491;-74
2021/08/19 10:50:27;;;;;;;1.20;1.03;;;22.10;98.00;;;;;;5079938;28;20987;-75
2021/08/19 10:52:57;;;;;;;1.20;1.10;;;22.20;98.00;;;;;;5067642;28;21015;-77
2021/08/19 10:55:25;;;;;;;1.47;1.17;;;22.30;97.70;;;;;;5089356;28;20456;-73
2021/08/19 10:57:56;;;;;;;1.20;1.10;;;22.30;96.00;;;;;;5082497;28;20480;-75
2021/08/19 11:00:42;;;;;;;1.43;1.27;;;22.30;97.70;;;;;;5080036;28;20463;-75
2021/08/19 11:03:41;;;;;;;1.30;1.10;;;22.40;97.90;;;;;;5076771;28;20488;-78
2021/08/19 11:06:10;;;;;;;1.40;1.20;;;22.40;98.00;;;;;;5082275;28;20843;-76
2021/08/19 11:08:59;;;;;;;1.50;1.17;;;22.40;98.00;;;;;;5074666;28;20448;-78
2021/08/19 11:11:31;;;;;;;1.80;1.40;;;22.40;98.00;;;;;;5072845;28;20468;-78
2021/08/19 11:14:06;;;;;;;1.30;1.10;;;22.40;98.00;;;;;;5083640;28;20498;-76
2021/08/19 11:16:33;;;;;;;2.07;1.40;;;22.50;98.00;;;;;;5083560;28;20468;-76
2021/08/19 11:19:14;;;;;;;1.20;1.20;;;22.50;98.00;;;;;;5085452;28;20463;-79
2021/08/19 11:21:56;;;;;;;1.90;1.37;;;22.60;98.00;;;;;;5086703;28;20452;-77
2021/08/19 11:24:24;;;;;;;1.30;1.20;;;22.60;98.00;;;;;;5056202;28;20487;-79
2021/08/19 11:27:02;;;;;;;1.20;1.20;;;22.60;98.00;;;;;;5088987;28;20534;-74
2021/08/19 11:29:36;;;;;;;1.37;1.23;;;22.60;98.00;;;;;;5080066;28;20934;-75
2021/08/19 11:32:08;;;;;;;1.20;1.20;;;22.50;98.00;;;;;;5081551;28;20463;-74
2021/08/19 11:34:35;;;;;;;1.40;1.40;;;22.30;98.00;;;;;;5063529;28;20495;-76
2021/08/19 11:37:02;;;;;;;1.30;1.20;;;22.10;98.00;;;;;;5082232;28;20468;-75
2021/08/19 11:39:30;;;;;;;1.33;1.20;;;21.90;98.00;;;;;;5081649;28;20909;-74
2021/08/19 11:41:59;;;;;;;1.30;1.27;;;21.60;98.00;;;;;;5081391;28;20967;-76
2021/08/19 11:44:26;;;;;;;1.30;1.20;;;21.60;98.00;;;;;;5088395;28;20476;-75
2021/08/19 11:47:01;;;;;;;1.20;1.10;;;21.40;98.00;;;;;;5089465;28;20498;-77
2021/08/19 11:49:29;;;;;;;1.30;1.20;;;21.50;98.00;;;;;;5076058;28;20567;-78
2021/08/19 11:52:05;;;;;;;1.27;1.10;;;21.50;98.00;;;;;;5081256;28;20457;-78
2021/08/19 11:54:43;;;;;;;1.70;1.27;;;21.50;98.00;;;;;;5081592;28;20452;-77
2021/08/19 11:57:24;;;;;;;1.40;1.40;;;21.60;98.00;;;;;;5073951;28;20506;-76
2021/08/19 12:00:01;;;;;;;1.60;1.40;;;21.70;98.00;;;;;;5056371;28;20452;-76
2021/08/19 12:02:30;;;;;;;1.20;1.10;;;21.90;98.00;;;;;;5055795;28;20943;-74
2021/08/19 12:05:05;;;;;;;1.20;1.10;;;22.00;98.00;;;;;;5073867;28;21159;-78
2021/08/19 12:07:34;;;;;;;1.20;1.10;;;22.20;98.00;;;;;;5073501;28;20476;-75
2021/08/19 12:10:07;;;;;;;1.30;1.27;;;22.40;98.00;;;;;;5073719;28;20452;-75
2021/08/19 12:12:36;;;;;;;1.40;1.30;;;22.50;98.00;;;;;;5073072;28;20461;-77
2021/08/19 12:15:07;;;;;;;1.20;1.10;;;22.60;98.00;;;;;;5073481;28;20524;-75
2021/08/19 12:17:36;;;;;;;1.20;1.20;;;22.50;98.00;;;;;;5073262;28;20449;-75
2021/08/19 12:20:11;;;;;;;1.20;1.10;;;22.40;98.00;;;;;;5073220;28;20484;-75
2021/08/19 12:22:38;;;;;;;3.13;1.30;;;22.50;98.00;;;;;;5073168;28;20514;-75
2021/08/19 12:25:15;;;;;;;1.50;1.13;;;22.60;97.20;;;;;;5073120;28;20481;-75
2021/08/19 12:27:42;;;;;;;1.20;1.10;;;22.50;98.00;;;;;;5072117;28;20490;-75
2021/08/19 12:30:10;;;;;;;1.30;1.10;;;22.60;98.00;;;;;;5072305;28;20554;-76
2021/08/19 12:32:39;;;;;;;1.20;1.00;;;22.50;98.00;;;;;;5072104;28;20469;-75
2021/08/19 12:35:07;;;;;;;1.20;1.20;;;22.60;98.00;;;;;;5072262;28;20460;-75
2021/08/19 12:37:37;;;;;;;1.20;1.10;;;22.40;98.00;;;;;;5072201;28;20518;-76
2021/08/19 12:40:12;;;;;;;1.97;1.40;;;22.30;98.00;;;;;;5072246;28;20496;-75
2021/08/19 12:42:40;;;;;;;1.40;1.30;;;22.10;98.00;;;;;;5072125;28;20452;-76
2021/08/19 12:45:09;;;;;;;2.03;1.20;;;22.10;98.00;;;;;;5072288;28;20498;-75
2021/08/19 12:47:39;;;;;;;1.30;1.20;;;22.10;98.00;;;;;;5071889;28;20484;-76
2021/08/19 12:50:07;;;;;;;1.20;1.20;;;22.20;98.00;;;;;;5072019;28;20452;-75
2021/08/19 12:52:35;;;;;;;1.30;1.20;;;22.40;98.00;;;;;;5054120;28;20535;-77
2021/08/19 12:55:05;;;;;;;1.20;1.10;;;22.50;98.00;;;;;;5054435;28;21146;-75
2021/08/19 12:57:38;;;;;;;1.50;1.30;;;22.50;98.00;;;;;;5071746;28;20879;-75